createdAt,value
2023-03-07T00:01:25.540Z,-10.40
2023-03-07T00:03:53.340Z,-10.50
2023-03-07T00:06:20.581Z,-10.50
2023-03-07T00:08:59.970Z,-10.50
2023-03-07T00:11:28.132Z,-10.50
2023-03-07T00:13:55.872Z,-10.70
2023-03-07T00:16:24.419Z,-10.80
2023-03-07T00:18:51.861Z,-10.90
2023-03-07T00:21:21.085Z,-10.90
2023-03-07T00:23:48.902Z,-10.90
2023-03-07T00:26:19.389Z,-10.90
2023-03-07T00:28:48.232Z,-10.80
2023-03-07T00:31:15.865Z,-10.80
2023-03-07T00:33:43.367Z,-10.90
2023-03-07T00:36:20.808Z,-11.00
2023-03-07T00:38:48.313Z,-10.90
2023-03-07T00:41:27.819Z,-10.90
2023-03-07T00:43:56.190Z,-10.90
2023-03-07T00:46:25.373Z,-11.00
2023-03-07T00:48:53.365Z,-11.10
2023-03-07T00:51:21.843Z,-11.00
2023-03-07T00:53:49.813Z,-11.10
2023-03-07T00:56:20.191Z,-11.20
2023-03-07T00:58:47.904Z,-11.20
2023-03-07T01:01:18.755Z,-11.30
2023-03-07T01:03:49.809Z,-11.40
2023-03-07T01:06:19.056Z,-11.40
2023-03-07T01:08:46.505Z,-11.30
2023-03-07T01:11:14.285Z,-11.30
2023-03-07T01:13:42.066Z,-11.30
2023-03-07T01:16:21.569Z,-11.40
2023-03-07T01:18:51.495Z,-11.50
2023-03-07T01:21:21.798Z,-11.50
2023-03-07T01:23:49.608Z,-11.40
2023-03-07T01:26:21.861Z,-11.40
2023-03-07T01:28:51.424Z,-11.40
2023-03-07T01:31:18.888Z,-11.40
2023-03-07T01:33:48.744Z,-11.40
2023-03-07T01:36:19.534Z,-11.40
2023-03-07T01:38:48.681Z,-11.40
2023-03-07T01:41:17.117Z,-11.50
2023-03-07T01:43:44.486Z,-11.50
2023-03-07T01:46:17.729Z,-11.40
2023-03-07T01:48:50.914Z,-11.30
2023-03-07T01:51:19.340Z,-11.30
2023-03-07T01:53:48.808Z,-11.40
2023-03-07T01:56:16.214Z,-11.40
2023-03-07T01:58:43.493Z,-11.40
2023-03-07T02:01:14.016Z,-11.50
2023-03-07T02:04:03.101Z,-11.60
2023-03-07T02:06:31.959Z,-11.50
2023-03-07T02:09:00.722Z,-11.60
2023-03-07T02:11:28.026Z,-11.70
2023-03-07T02:13:55.510Z,-11.70
2023-03-07T02:16:22.993Z,-11.80
2023-03-07T02:18:50.734Z,-11.80
2023-03-07T02:21:29.136Z,-11.70
2023-03-07T02:24:12.885Z,-11.80
2023-03-07T02:26:45.820Z,-11.80
2023-03-07T02:29:14.377Z,-11.90
2023-03-07T02:31:41.900Z,-11.90
2023-03-07T02:34:27.833Z,-11.90
2023-03-07T02:37:22.795Z,-11.90
2023-03-07T02:39:50.389Z,-11.80
2023-03-07T02:42:30.775Z,-11.80
2023-03-07T02:45:03.940Z,-11.90
2023-03-07T02:47:31.286Z,-11.90
2023-03-07T02:49:58.522Z,-11.90
2023-03-07T02:52:28.130Z,-11.80
2023-03-07T02:54:55.984Z,-11.90
2023-03-07T02:57:23.326Z,-11.90
2023-03-07T02:59:50.587Z,-12.00
2023-03-07T03:02:18.010Z,-12.00
2023-03-07T03:04:45.187Z,-12.00
2023-03-07T03:07:12.616Z,-12.00
2023-03-07T03:09:40.016Z,-12.00
2023-03-07T03:12:07.776Z,-12.10
2023-03-07T03:14:35.184Z,-12.00
2023-03-07T03:17:02.265Z,-12.00
2023-03-07T03:19:30.261Z,-12.00
2023-03-07T03:21:57.853Z,-12.00
2023-03-07T03:24:25.705Z,-12.00
2023-03-07T03:26:57.394Z,-12.00
2023-03-07T03:29:25.858Z,-12.00
2023-03-07T03:31:53.214Z,-12.10
2023-03-07T03:34:20.675Z,-12.00
2023-03-07T03:36:48.053Z,-12.10
2023-03-07T03:39:15.477Z,-12.10
2023-03-07T03:41:42.749Z,-12.10
2023-03-07T03:44:10.363Z,-12.00
2023-03-07T03:46:38.038Z,-12.10
2023-03-07T03:49:05.851Z,-12.10
2023-03-07T03:51:33.341Z,-12.10
2023-03-07T03:54:00.822Z,-12.10
2023-03-07T03:56:28.230Z,-12.00
2023-03-07T03:58:57.214Z,-12.10
2023-03-07T04:01:26.407Z,-12.10
2023-03-07T04:03:54.596Z,-12.20
2023-03-07T04:06:28.134Z,-12.20
2023-03-07T04:08:56.557Z,-12.20
2023-03-07T04:11:25.494Z,-12.10
2023-03-07T04:13:53.506Z,-12.20
2023-03-07T04:16:22.749Z,-12.10
2023-03-07T04:18:53.333Z,-12.20
2023-03-07T04:21:21.364Z,-12.20
2023-03-07T04:23:55.642Z,-12.20
2023-03-07T04:26:23.418Z,-12.20
2023-03-07T04:28:50.708Z,-12.30
2023-03-07T04:31:24.107Z,-12.40
2023-03-07T04:33:52.034Z,-12.30
2023-03-07T04:36:19.936Z,-12.40
2023-03-07T04:38:48.692Z,-12.30
2023-03-07T04:41:21.476Z,-12.40
2023-03-07T04:43:48.843Z,-12.60
2023-03-07T04:46:17.526Z,-12.60
2023-03-07T04:48:45.927Z,-12.50
2023-03-07T04:51:13.809Z,-12.50
2023-03-07T04:53:41.208Z,-12.50
2023-03-07T04:56:09.404Z,-12.50
2023-03-07T04:58:37.610Z,-12.50
2023-03-07T05:01:05.502Z,-12.50
2023-03-07T05:03:34.303Z,-12.60
2023-03-07T05:06:03.687Z,-12.80
2023-03-07T05:08:31.064Z,-12.80
2023-03-07T05:10:58.549Z,-12.70
2023-03-07T05:13:26.048Z,-12.60
2023-03-07T05:15:55.366Z,-12.50
2023-03-07T05:18:23.145Z,-12.60
2023-03-07T05:20:50.699Z,-12.50
2023-03-07T05:23:21.980Z,-12.50
2023-03-07T05:25:49.087Z,-12.60
2023-03-07T05:28:17.100Z,-12.50
2023-03-07T05:30:46.023Z,-12.50
2023-03-07T05:33:13.491Z,-12.50
2023-03-07T05:35:40.979Z,-12.50
2023-03-07T05:38:08.706Z,-12.50
2023-03-07T05:40:36.297Z,-12.60
2023-03-07T05:43:03.740Z,-12.60
2023-03-07T05:45:30.821Z,-12.60
2023-03-07T05:47:57.859Z,-12.60
2023-03-07T05:50:25.080Z,-12.50
2023-03-07T05:52:53.218Z,-12.40
2023-03-07T05:55:20.568Z,-12.30
2023-03-07T05:57:48.158Z,-12.40
2023-03-07T06:00:16.201Z,-12.40
2023-03-07T06:02:43.743Z,-12.40
2023-03-07T06:05:10.993Z,-12.30
2023-03-07T06:07:38.168Z,-12.20
2023-03-07T06:10:05.979Z,-12.20
2023-03-07T06:12:33.311Z,-12.10
2023-03-07T06:15:00.685Z,-12.00
2023-03-07T06:17:28.297Z,-12.10
2023-03-07T06:19:55.566Z,-12.10
2023-03-07T06:22:22.931Z,-12.10
2023-03-07T06:24:50.323Z,-12.00
2023-03-07T06:27:17.707Z,-12.00
2023-03-07T06:29:45.112Z,-11.90
2023-03-07T06:32:12.297Z,-11.90
2023-03-07T06:34:39.628Z,-11.90
2023-03-07T06:37:07.018Z,-11.80
2023-03-07T06:39:34.140Z,-11.70
2023-03-07T06:42:01.303Z,-11.70
2023-03-07T06:44:28.528Z,-11.70
2023-03-07T06:46:55.670Z,-11.60
2023-03-07T06:49:23.130Z,-11.50
2023-03-07T06:51:50.682Z,-11.50
2023-03-07T06:54:18.822Z,-11.40
2023-03-07T06:56:45.990Z,-11.40
2023-03-07T06:59:13.418Z,-11.30
2023-03-07T07:01:40.771Z,-11.20
2023-03-07T07:04:07.974Z,-11.10
2023-03-07T07:06:35.400Z,-11.00
2023-03-07T07:09:02.922Z,-10.80
2023-03-07T07:11:30.157Z,-10.70
2023-03-07T07:13:57.721Z,-10.60
2023-03-07T07:16:24.853Z,-10.50
2023-03-07T07:18:52.293Z,-10.40
2023-03-07T07:21:20.016Z,-10.20
2023-03-07T07:23:47.526Z,-10.10
2023-03-07T07:26:15.044Z,-9.90
2023-03-07T07:28:42.167Z,-9.70
2023-03-07T07:31:09.669Z,-9.30
2023-03-07T07:33:36.850Z,-9.10
2023-03-07T07:36:04.218Z,-8.80
2023-03-07T07:38:31.309Z,-8.50
2023-03-07T07:40:58.472Z,-8.10
2023-03-07T07:43:25.954Z,-7.90
2023-03-07T07:45:53.136Z,-7.40
2023-03-07T07:48:20.611Z,-6.70
2023-03-07T07:50:47.925Z,-6.20
2023-03-07T07:53:17.251Z,-5.90
2023-03-07T07:55:46.149Z,-5.60
2023-03-07T07:58:13.514Z,-5.60
2023-03-07T08:00:40.762Z,-5.40
2023-03-07T08:03:08.191Z,-5.00
2023-03-07T08:05:35.350Z,-4.30
2023-03-07T08:08:02.573Z,-2.00
2023-03-07T08:10:29.985Z,-1.70
2023-03-07T08:12:57.184Z,-0.90
2023-03-07T08:15:24.390Z,-0.30
2023-03-07T08:17:52.667Z,-0.50
2023-03-07T08:20:22.483Z,-0.80
2023-03-07T08:22:51.050Z,-1.80
2023-03-07T08:25:22.728Z,-2.90
2023-03-07T08:27:55.316Z,-3.10
2023-03-07T08:30:28.053Z,-3.20
2023-03-07T08:32:56.912Z,-3.20
2023-03-07T08:35:26.089Z,-3.40
2023-03-07T08:37:59.388Z,-3.50
2023-03-07T08:40:28.538Z,-3.20
2023-03-07T08:42:55.938Z,-3.10
2023-03-07T08:45:23.867Z,-2.90
2023-03-07T08:47:55.412Z,-3.00
2023-03-07T08:50:28.058Z,-2.60
2023-03-07T08:52:55.457Z,-2.30
2023-03-07T08:55:22.926Z,-2.30
2023-03-07T08:57:50.398Z,-2.40
2023-03-07T09:00:18.301Z,-2.20
2023-03-07T09:02:45.763Z,-1.90
2023-03-07T09:05:13.247Z,-1.70
2023-03-07T09:07:40.642Z,-1.50
2023-03-07T09:10:08.456Z,-1.40
2023-03-07T09:12:36.392Z,-1.70
2023-03-07T09:15:03.929Z,-1.70
2023-03-07T09:17:31.347Z,-1.70
2023-03-07T09:19:58.775Z,-1.80
2023-03-07T09:22:27.996Z,-1.80
2023-03-07T09:24:55.204Z,-1.30
2023-03-07T09:27:22.409Z,-1.50
2023-03-07T09:29:49.921Z,-1.00
2023-03-07T09:32:17.364Z,-1.10
2023-03-07T09:34:44.785Z,-0.90
2023-03-07T09:37:12.633Z,-0.80
2023-03-07T09:39:40.104Z,-0.80
2023-03-07T09:42:28.163Z,-0.50
2023-03-07T09:45:10.574Z,-0.50
2023-03-07T09:47:46.274Z,0.00
2023-03-07T09:50:50.145Z,0.40
2023-03-07T09:53:45.884Z,0.20
2023-03-07T09:56:19.975Z,-0.30
2023-03-07T09:58:53.915Z,-0.50
2023-03-07T10:01:24.480Z,-0.40
2023-03-07T10:04:00.133Z,-0.30
2023-03-07T10:06:39.046Z,-0.90
2023-03-07T10:09:12.785Z,-0.60
2023-03-07T10:12:03.294Z,-0.70
2023-03-07T10:14:46.592Z,-0.40
2023-03-07T10:17:22.687Z,-0.30
2023-03-07T10:19:53.009Z,-0.50
2023-03-07T10:22:54.843Z,-0.50
2023-03-07T10:25:49.695Z,-0.20
2023-03-07T10:28:27.460Z,-0.30
2023-03-07T10:31:01.483Z,-0.10
2023-03-07T10:33:30.980Z,-0.20
2023-03-07T10:36:08.129Z,-0.40
2023-03-07T10:39:15.204Z,-0.30
2023-03-07T10:41:42.621Z,0.00
2023-03-07T10:44:18.839Z,0.00
2023-03-07T10:46:55.218Z,-0.20
2023-03-07T10:49:46.076Z,0.10
2023-03-07T10:52:32.584Z,0.00
2023-03-07T10:55:31.977Z,0.20
2023-03-07T10:58:20.090Z,0.20
2023-03-07T11:01:06.909Z,0.10
2023-03-07T11:03:52.166Z,-0.50
2023-03-07T11:06:33.547Z,-0.20
2023-03-07T11:09:19.627Z,-0.70
2023-03-07T11:12:11.405Z,-0.60
2023-03-07T11:15:04.644Z,-0.40
2023-03-07T11:17:46.140Z,0.00
2023-03-07T11:20:29.193Z,0.10
2023-03-07T11:23:18.669Z,-0.20
2023-03-07T11:25:46.057Z,-0.20
2023-03-07T11:28:31.708Z,-0.40
2023-03-07T11:31:15.322Z,-0.20
2023-03-07T11:34:18.265Z,-0.30
2023-03-07T11:36:48.873Z,-0.20
2023-03-07T11:39:37.922Z,-0.60
2023-03-07T11:42:23.316Z,-0.50
2023-03-07T11:45:00.355Z,-0.40
2023-03-07T11:47:48.107Z,-0.10
2023-03-07T11:50:16.385Z,-0.10
2023-03-07T11:52:55.788Z,-0.10
2023-03-07T11:55:36.513Z,0.00
2023-03-07T11:58:22.730Z,-0.30
2023-03-07T12:01:26.734Z,-0.50
2023-03-07T12:04:14.879Z,-0.50
2023-03-07T12:07:05.095Z,-0.50
2023-03-07T12:09:52.529Z,-0.50
2023-03-07T12:12:47.153Z,-0.50
2023-03-07T12:15:46.175Z,-0.60
2023-03-07T12:18:48.200Z,-0.50
2023-03-07T12:22:03.951Z,-0.30
2023-03-07T12:24:57.843Z,-0.20
2023-03-07T12:27:43.608Z,0.00
2023-03-07T12:30:28.141Z,0.00
2023-03-07T12:32:56.251Z,-0.10
2023-03-07T12:35:44.058Z,-0.50
2023-03-07T12:38:29.626Z,-0.20
2023-03-07T12:41:02.104Z,0.10
2023-03-07T12:43:46.020Z,0.20
2023-03-07T12:46:42.239Z,-0.20
2023-03-07T12:49:40.981Z,-0.30
2023-03-07T12:52:42.533Z,-0.30
2023-03-07T12:55:36.519Z,-0.10
2023-03-07T12:58:22.162Z,-0.30
2023-03-07T13:00:54.732Z,0.10
2023-03-07T13:03:57.324Z,0.10
2023-03-07T13:06:25.928Z,0.10
2023-03-07T13:08:59.640Z,0.10
2023-03-07T13:11:30.651Z,-0.40
2023-03-07T13:13:59.907Z,-0.50
2023-03-07T13:16:46.454Z,-0.30
2023-03-07T13:19:35.722Z,-0.50
2023-03-07T13:22:14.885Z,-0.80
2023-03-07T13:24:43.875Z,-0.80
2023-03-07T13:27:17.998Z,-0.80
2023-03-07T13:30:04.239Z,-0.60
2023-03-07T13:32:52.485Z,-0.60
2023-03-07T13:35:48.850Z,-0.70
2023-03-07T13:38:33.641Z,-0.50
2023-03-07T13:41:05.484Z,-0.60
2023-03-07T13:43:54.879Z,-0.60
2023-03-07T13:46:25.468Z,-0.80
2023-03-07T13:48:52.631Z,-0.70
2023-03-07T13:51:22.766Z,-0.70
2023-03-07T13:53:56.113Z,-0.80
2023-03-07T13:56:29.839Z,-0.90
2023-03-07T13:59:10.574Z,-0.80
2023-03-07T14:01:46.932Z,-0.90
2023-03-07T14:04:55.990Z,-1.00
2023-03-07T14:07:24.889Z,-0.80
2023-03-07T14:10:28.075Z,-0.90
2023-03-07T14:12:57.945Z,-1.00
2023-03-07T14:16:00.653Z,-0.90
2023-03-07T14:19:01.898Z,-0.70
2023-03-07T14:21:47.943Z,-0.80
2023-03-07T14:24:52.890Z,-0.80
2023-03-07T14:27:20.282Z,-0.80
2023-03-07T14:30:01.172Z,-0.90
2023-03-07T14:32:31.586Z,-0.80
2023-03-07T14:35:01.030Z,-0.80
2023-03-07T14:37:30.872Z,-0.80
2023-03-07T14:40:16.648Z,-1.00
2023-03-07T14:43:08.708Z,-1.10
2023-03-07T14:45:41.014Z,-1.20
2023-03-07T14:48:37.240Z,-1.20
2023-03-07T14:51:15.689Z,-1.20
2023-03-07T14:53:43.540Z,-1.30
2023-03-07T14:56:12.657Z,-1.30
2023-03-07T14:58:51.354Z,-1.20
2023-03-07T15:01:19.851Z,-1.40
2023-03-07T15:03:53.013Z,-1.40
2023-03-07T15:06:26.189Z,-1.50
2023-03-07T15:08:57.345Z,-1.40
2023-03-07T15:12:07.331Z,-1.50
2023-03-07T15:14:48.429Z,-1.50
2023-03-07T15:17:22.849Z,-1.50
2023-03-07T15:20:10.142Z,-1.50
2023-03-07T15:22:41.459Z,-1.60
2023-03-07T15:25:25.741Z,-1.60
2023-03-07T15:28:19.275Z,-1.60
2023-03-07T15:30:53.295Z,-1.60
2023-03-07T15:33:21.070Z,-1.60
2023-03-07T15:36:09.230Z,-1.60
2023-03-07T15:38:36.449Z,-1.50
2023-03-07T15:41:29.935Z,-1.60
2023-03-07T15:44:12.587Z,-1.70
2023-03-07T15:46:46.573Z,-1.70
2023-03-07T15:49:40.994Z,-1.70
2023-03-07T15:52:25.641Z,-1.80
2023-03-07T15:54:54.718Z,-1.80
2023-03-07T15:57:26.646Z,-1.80
2023-03-07T16:00:05.784Z,-1.90
2023-03-07T16:02:33.563Z,-1.90
2023-03-07T16:05:03.021Z,-2.00
2023-03-07T16:07:30.421Z,-1.90
2023-03-07T16:09:57.843Z,-1.90
2023-03-07T16:12:25.751Z,-1.90
2023-03-07T16:14:54.543Z,-2.00
2023-03-07T16:17:35.999Z,-2.00
2023-03-07T16:20:04.813Z,-2.10
2023-03-07T16:22:32.205Z,-2.10
2023-03-07T16:24:59.408Z,-2.10
2023-03-07T16:27:26.504Z,-2.10
2023-03-07T16:29:54.253Z,-2.10
2023-03-07T16:32:23.299Z,-2.10
2023-03-07T16:34:50.914Z,-2.10
2023-03-07T16:37:18.245Z,-2.10
2023-03-07T16:39:45.408Z,-2.00
2023-03-07T16:42:23.086Z,-2.10
2023-03-07T16:44:51.836Z,-2.00
2023-03-07T16:47:18.975Z,-2.10
2023-03-07T16:49:47.002Z,-2.20
2023-03-07T16:52:15.064Z,-2.20
2023-03-07T16:54:42.425Z,-2.10
2023-03-07T16:57:17.355Z,-2.20
2023-03-07T16:59:47.262Z,-2.20
2023-03-07T17:02:24.704Z,-2.30
2023-03-07T17:04:52.186Z,-2.30
2023-03-07T17:07:26.769Z,-2.20
2023-03-07T17:09:56.755Z,-2.20
2023-03-07T17:12:25.039Z,-2.30
2023-03-07T17:14:52.667Z,-2.30
2023-03-07T17:17:29.889Z,-2.30
2023-03-07T17:19:57.146Z,-2.20
2023-03-07T17:22:24.715Z,-2.30
2023-03-07T17:24:52.131Z,-2.40
2023-03-07T17:27:20.041Z,-2.50
2023-03-07T17:29:50.089Z,-2.40
2023-03-07T17:32:18.598Z,-2.40
2023-03-07T17:34:45.728Z,-2.50
2023-03-07T17:37:13.731Z,-2.50
2023-03-07T17:39:41.267Z,-2.50
2023-03-07T17:42:08.453Z,-2.50
2023-03-07T17:44:35.869Z,-2.50
2023-03-07T17:47:03.517Z,-2.50
2023-03-07T17:49:35.769Z,-2.40
2023-03-07T17:52:05.001Z,-2.40
2023-03-07T17:54:33.161Z,-2.40
2023-03-07T17:57:01.092Z,-2.30
2023-03-07T17:59:30.036Z,-2.30
2023-03-07T18:01:58.165Z,-2.30
2023-03-07T18:04:25.424Z,-2.30
2023-03-07T18:06:52.831Z,-2.20
2023-03-07T18:09:23.140Z,-2.20
2023-03-07T18:11:50.780Z,-2.30
2023-03-07T18:14:18.249Z,-2.30
2023-03-07T18:16:45.829Z,-2.30
2023-03-07T18:19:25.396Z,-2.20
2023-03-07T18:21:53.298Z,-2.30
2023-03-07T18:24:30.242Z,-2.30
2023-03-07T18:26:59.390Z,-2.30
2023-03-07T18:29:28.439Z,-2.30
2023-03-07T18:31:56.021Z,-2.30
2023-03-07T18:34:25.155Z,-2.30
2023-03-07T18:36:54.356Z,-2.40
2023-03-07T18:39:23.931Z,-2.40
2023-03-07T18:41:51.703Z,-2.50
2023-03-07T18:44:19.819Z,-2.50
2023-03-07T18:46:47.268Z,-2.50
2023-03-07T18:49:14.523Z,-2.50
2023-03-07T18:51:45.887Z,-2.50
2023-03-07T18:54:14.360Z,-2.50
2023-03-07T18:56:42.922Z,-2.60
2023-03-07T18:59:10.384Z,-2.60
2023-03-07T19:01:39.789Z,-2.60
2023-03-07T19:04:07.869Z,-2.60
2023-03-07T19:06:41.180Z,-2.60
2023-03-07T19:09:13.386Z,-2.60
2023-03-07T19:11:40.583Z,-2.50
2023-03-07T19:14:07.958Z,-2.50
2023-03-07T19:16:35.079Z,-2.60
2023-03-07T19:19:03.745Z,-2.50
2023-03-07T19:21:31.680Z,-2.50
2023-03-07T19:24:00.450Z,-2.50
2023-03-07T19:26:27.934Z,-2.50
2023-03-07T19:28:56.494Z,-2.50
2023-03-07T19:31:29.601Z,-2.40
2023-03-07T19:33:59.176Z,-2.40
2023-03-07T19:36:29.687Z,-2.40
2023-03-07T19:38:59.315Z,-2.40
2023-03-07T19:41:28.498Z,-2.40
2023-03-07T19:43:57.171Z,-2.50
2023-03-07T19:46:24.533Z,-2.50
2023-03-07T19:48:51.679Z,-2.40
2023-03-07T19:51:24.542Z,-2.40
2023-03-07T19:53:52.629Z,-2.40
2023-03-07T19:56:34.809Z,-2.40
2023-03-07T19:59:05.262Z,-2.40
2023-03-07T20:01:32.715Z,-2.40
2023-03-07T20:04:00.042Z,-2.40
2023-03-07T20:06:30.333Z,-2.50
2023-03-07T20:08:59.174Z,-2.50
2023-03-07T20:11:29.026Z,-2.50
2023-03-07T20:13:58.505Z,-2.40
2023-03-07T20:16:29.442Z,-2.50
2023-03-07T20:18:59.772Z,-2.50
2023-03-07T20:21:28.813Z,-2.40
2023-03-07T20:23:59.728Z,-2.50
2023-03-07T20:26:35.746Z,-2.40
2023-03-07T20:29:05.650Z,-2.40
2023-03-07T20:31:33.258Z,-2.40
2023-03-07T20:34:01.160Z,-2.40
2023-03-07T20:36:36.454Z,-2.30
2023-03-07T20:39:13.192Z,-2.40
2023-03-07T20:41:41.818Z,-2.40
2023-03-07T20:44:12.317Z,-2.40
2023-03-07T20:46:39.576Z,-2.50
2023-03-07T20:49:07.353Z,-2.30
2023-03-07T20:51:36.442Z,-2.40
2023-03-07T20:54:13.635Z,-2.50
2023-03-07T20:56:41.687Z,-2.50
2023-03-07T20:59:15.738Z,-2.50
2023-03-07T21:01:43.764Z,-2.50
2023-03-07T21:04:13.646Z,-2.50
2023-03-07T21:06:42.911Z,-2.50
2023-03-07T21:09:11.890Z,-2.50
2023-03-07T21:11:42.917Z,-2.50
2023-03-07T21:14:10.216Z,-2.50
2023-03-07T21:16:38.044Z,-2.50
2023-03-07T21:19:07.218Z,-2.50
2023-03-07T21:21:36.233Z,-2.50
2023-03-07T21:24:05.880Z,-2.50
2023-03-07T21:26:36.406Z,-2.50
2023-03-07T21:29:04.826Z,-2.50
2023-03-07T21:31:34.201Z,-2.40
2023-03-07T21:34:04.894Z,-2.40
2023-03-07T21:36:32.337Z,-2.40
2023-03-07T21:39:00.799Z,-2.40
2023-03-07T21:41:28.093Z,-2.40
2023-03-07T21:43:56.396Z,-2.40
2023-03-07T21:46:24.532Z,-2.30
2023-03-07T21:48:52.124Z,-2.30
2023-03-07T21:51:20.266Z,-2.20
2023-03-07T21:53:47.727Z,-2.30
2023-03-07T21:56:17.366Z,-2.30
2023-03-07T21:58:48.594Z,-2.20
2023-03-07T22:01:22.317Z,-2.20
2023-03-07T22:03:52.645Z,-2.20
2023-03-07T22:06:20.189Z,-2.20
2023-03-07T22:08:47.694Z,-2.20
2023-03-07T22:11:15.151Z,-2.20
2023-03-07T22:13:43.032Z,-2.20
2023-03-07T22:16:20.846Z,-2.20
2023-03-07T22:18:56.057Z,-2.10
2023-03-07T22:21:26.332Z,-2.10
2023-03-07T22:23:58.216Z,-2.10
2023-03-07T22:26:27.267Z,-2.00
2023-03-07T22:28:55.254Z,-2.10
2023-03-07T22:31:22.884Z,-2.10
2023-03-07T22:33:50.116Z,-2.10
2023-03-07T22:36:17.648Z,-2.10
2023-03-07T22:38:45.385Z,-2.10
2023-03-07T22:41:17.615Z,-2.20
2023-03-07T22:43:45.366Z,-2.20
2023-03-07T22:46:13.192Z,-2.30
2023-03-07T22:48:41.115Z,-2.20
2023-03-07T22:51:18.496Z,-2.20
2023-03-07T22:53:46.121Z,-2.30
2023-03-07T22:56:31.809Z,-2.30
2023-03-07T22:58:59.442Z,-2.30
2023-03-07T23:01:28.358Z,-2.40
2023-03-07T23:03:57.237Z,-2.40
2023-03-07T23:06:28.733Z,-2.50
2023-03-07T23:08:58.626Z,-2.50
2023-03-07T23:11:27.701Z,-2.50
2023-03-07T23:13:55.494Z,-2.50
2023-03-07T23:16:31.198Z,-2.50
2023-03-07T23:18:59.662Z,-2.50
2023-03-07T23:21:30.239Z,-2.50
2023-03-07T23:23:58.306Z,-2.50
2023-03-07T23:26:29.145Z,-2.50
2023-03-07T23:28:57.036Z,-2.50
2023-03-07T23:31:33.335Z,-2.50
2023-03-07T23:34:03.378Z,-2.50
2023-03-07T23:36:32.748Z,-2.40
2023-03-07T23:39:00.472Z,-2.40
2023-03-07T23:41:28.396Z,-2.30
2023-03-07T23:43:58.106Z,-2.20
2023-03-07T23:46:27.024Z,-2.30
2023-03-07T23:48:55.082Z,-2.20
2023-03-07T23:51:22.916Z,-2.20
2023-03-07T23:53:50.079Z,-2.20
2023-03-07T23:56:17.674Z,-2.20
2023-03-07T23:58:49.444Z,-2.30
